createdAt,value
2022-10-29T00:01:03.850Z,75.24
2022-10-29T00:03:39.487Z,75.14
2022-10-29T00:06:10.615Z,75.50
2022-10-29T00:08:39.594Z,75.88
2022-10-29T00:11:16.149Z,75.62
2022-10-29T00:13:45.316Z,75.12
2022-10-29T00:16:24.788Z,74.92
2022-10-29T00:18:52.429Z,74.75
2022-10-29T00:21:22.410Z,74.66
2022-10-29T00:23:51.275Z,74.56
2022-10-29T00:26:21.145Z,74.37
2022-10-29T00:28:52.717Z,74.35
2022-10-29T00:31:24.238Z,74.47
2022-10-29T00:33:54.219Z,74.81
2022-10-29T00:36:24.831Z,75.23
2022-10-29T00:38:52.464Z,75.02
2022-10-29T00:41:23.575Z,74.76
2022-10-29T00:44:12.208Z,74.49
2022-10-29T00:46:43.323Z,74.34
2022-10-29T00:49:11.527Z,74.19
2022-10-29T00:51:39.565Z,74.13
2022-10-29T00:54:10.046Z,74.17
2022-10-29T00:56:47.802Z,74.13
2022-10-29T00:59:17.333Z,74.24
2022-10-29T01:01:47.385Z,74.77
2022-10-29T01:04:16.753Z,75.13
2022-10-29T01:06:44.864Z,74.93
2022-10-29T01:09:12.785Z,74.74
2022-10-29T01:11:50.645Z,74.42
2022-10-29T01:14:49.256Z,74.45
2022-10-29T01:17:51.129Z,74.42
2022-10-29T01:20:36.977Z,74.29
2022-10-29T01:23:32.830Z,74.28
2022-10-29T01:26:22.236Z,74.38
2022-10-29T01:29:08.023Z,74.35
2022-10-29T01:31:39.336Z,74.93
2022-10-29T01:34:39.062Z,75.23
2022-10-29T01:37:20.952Z,75.02
2022-10-29T01:40:04.162Z,74.63
2022-10-29T01:42:40.814Z,74.57
2022-10-29T01:45:30.646Z,74.54
2022-10-29T01:48:05.419Z,74.65
2022-10-29T01:50:35.495Z,74.39
2022-10-29T01:53:04.920Z,74.37
2022-10-29T01:55:37.163Z,74.32
2022-10-29T01:58:06.569Z,74.85
2022-10-29T02:00:49.224Z,75.25
2022-10-29T02:03:43.339Z,75.18
2022-10-29T02:06:16.940Z,74.86
2022-10-29T02:08:47.236Z,74.66
2022-10-29T02:11:27.544Z,74.56
2022-10-29T02:14:33.750Z,74.63
2022-10-29T02:17:02.692Z,74.54
2022-10-29T02:19:35.224Z,74.60
2022-10-29T02:22:03.564Z,74.57
2022-10-29T02:24:31.432Z,75.00
2022-10-29T02:26:59.509Z,75.49
2022-10-29T02:29:27.225Z,75.38
2022-10-29T02:31:54.840Z,75.03
2022-10-29T02:34:22.480Z,74.75
2022-10-29T02:36:50.369Z,74.54
2022-10-29T02:39:18.021Z,74.49
2022-10-29T02:41:45.601Z,74.43
2022-10-29T02:44:13.284Z,74.48
2022-10-29T02:46:41.900Z,74.41
2022-10-29T02:49:09.553Z,74.40
2022-10-29T02:51:37.466Z,74.78
2022-10-29T02:54:05.190Z,75.32
2022-10-29T02:56:33.072Z,75.33
2022-10-29T02:59:00.897Z,75.09
2022-10-29T03:01:28.740Z,74.79
2022-10-29T03:03:58.069Z,74.68
2022-10-29T03:06:25.837Z,74.57
2022-10-29T03:08:53.427Z,74.47
2022-10-29T03:11:21.104Z,74.46
2022-10-29T03:13:48.788Z,74.38
2022-10-29T03:16:16.442Z,74.78
2022-10-29T03:18:44.040Z,75.28
2022-10-29T03:21:11.805Z,75.21
2022-10-29T03:23:39.475Z,74.93
2022-10-29T03:26:07.113Z,74.83
2022-10-29T03:28:34.834Z,74.64
2022-10-29T03:31:02.916Z,74.40
2022-10-29T03:33:30.711Z,74.38
2022-10-29T03:35:59.321Z,74.37
2022-10-29T03:38:27.485Z,74.36
2022-10-29T03:40:55.514Z,74.31
2022-10-29T03:43:23.781Z,74.67
2022-10-29T03:45:55.898Z,75.08
2022-10-29T03:48:25.128Z,75.11
2022-10-29T03:51:01.657Z,74.87
2022-10-29T03:53:29.793Z,74.64
2022-10-29T03:55:57.806Z,74.60
2022-10-29T03:58:26.835Z,74.34
2022-10-29T04:01:01.935Z,74.52
2022-10-29T04:03:32.344Z,74.41
2022-10-29T04:06:02.282Z,74.37
2022-10-29T04:08:30.094Z,74.31
2022-10-29T04:10:58.820Z,74.89
2022-10-29T04:13:26.504Z,75.20
2022-10-29T04:15:55.318Z,75.27
2022-10-29T04:18:24.180Z,74.92
2022-10-29T04:29:16.785Z,74.28
2022-10-29T04:31:44.446Z,74.06
2022-10-29T04:34:12.083Z,74.17
2022-10-29T04:36:39.740Z,74.21
2022-10-29T04:39:08.102Z,74.64
2022-10-29T04:41:35.755Z,74.90
2022-10-29T04:44:03.515Z,75.07
2022-10-29T04:46:31.100Z,74.63
2022-10-29T04:48:58.826Z,74.43
2022-10-29T04:51:27.300Z,74.11
2022-10-29T04:53:55.013Z,74.00
2022-10-29T04:56:22.883Z,73.79
2022-10-29T04:58:52.636Z,73.99
2022-10-29T05:01:20.530Z,74.12
2022-10-29T05:03:48.260Z,74.11
2022-10-29T05:06:15.839Z,73.97
2022-10-29T05:08:43.429Z,74.52
2022-10-29T05:11:11.059Z,74.78
2022-10-29T05:13:38.706Z,74.73
2022-10-29T05:16:06.883Z,74.64
2022-10-29T05:18:37.492Z,74.42
2022-10-29T05:21:05.426Z,74.32
2022-10-29T05:23:33.822Z,74.32
2022-10-29T05:26:01.635Z,74.30
2022-10-29T05:28:29.237Z,74.27
2022-10-29T05:31:01.591Z,74.25
2022-10-29T05:33:29.294Z,74.25
2022-10-29T05:36:01.018Z,74.68
2022-10-29T05:38:28.716Z,75.22
2022-10-29T05:40:58.960Z,75.32
2022-10-29T05:43:26.636Z,75.16
2022-10-29T05:45:54.542Z,74.76
2022-10-29T05:48:22.204Z,74.63
2022-10-29T05:50:49.796Z,74.66
2022-10-29T05:53:17.514Z,74.55
2022-10-29T05:55:45.171Z,74.48
2022-10-29T05:58:14.234Z,74.37
2022-10-29T06:00:44.587Z,74.40
2022-10-29T06:03:18.020Z,74.92
2022-10-29T06:05:49.973Z,75.25
2022-10-29T06:08:17.846Z,75.35
2022-10-29T06:10:45.757Z,75.01
2022-10-29T06:13:18.098Z,74.72
2022-10-29T06:15:46.926Z,74.45
2022-10-29T06:18:15.496Z,74.30
2022-10-29T06:20:43.783Z,74.10
2022-10-29T06:23:11.956Z,74.15
2022-10-29T06:25:40.063Z,74.03
2022-10-29T06:28:12.047Z,74.23
2022-10-29T06:30:39.823Z,74.47
2022-10-29T06:33:07.802Z,74.83
2022-10-29T06:38:11.193Z,74.50
2022-10-29T06:40:42.728Z,74.24
2022-10-29T06:43:12.810Z,74.04
2022-10-29T06:45:40.712Z,73.77
2022-10-29T06:48:09.228Z,73.67
2022-10-29T06:50:37.129Z,73.69
2022-10-29T06:53:07.267Z,73.45
2022-10-29T06:55:35.597Z,73.51
2022-10-29T06:58:10.567Z,73.86
2022-10-29T07:00:39.090Z,74.08
2022-10-29T07:03:07.447Z,73.78
2022-10-29T07:05:36.415Z,73.60
2022-10-29T07:08:04.224Z,73.09
2022-10-29T07:10:33.440Z,72.90
2022-10-29T07:13:01.024Z,72.43
2022-10-29T07:15:30.934Z,72.20
2022-10-29T07:18:01.662Z,71.53
2022-10-29T07:20:32.996Z,71.33
2022-10-29T07:23:01.424Z,71.06
2022-10-29T07:25:30.616Z,70.54
2022-10-29T07:28:11.569Z,69.85
2022-10-29T07:30:39.896Z,69.96
2022-10-29T07:33:07.604Z,70.02
2022-10-29T07:35:35.945Z,69.20
2022-10-29T07:38:09.193Z,68.26
2022-10-29T07:40:39.815Z,67.86
2022-10-29T07:43:07.408Z,66.37
2022-10-29T07:45:35.035Z,66.20
2022-10-29T07:48:05.159Z,64.68
2022-10-29T07:50:33.358Z,64.23
2022-10-29T07:53:01.752Z,64.20
2022-10-29T07:58:04.766Z,62.36
2022-10-29T08:00:35.647Z,61.11
2022-10-29T08:03:03.651Z,60.97
2022-10-29T08:05:31.938Z,59.64
2022-10-29T08:08:00.163Z,60.51
2022-10-29T08:10:29.636Z,59.96
2022-10-29T08:12:58.496Z,59.35
2022-10-29T08:15:28.522Z,59.85
2022-10-29T08:17:57.723Z,58.15
2022-10-29T08:20:26.266Z,58.77
2022-10-29T08:22:54.348Z,60.13
2022-10-29T08:25:22.524Z,58.60
2022-10-29T08:28:01.561Z,59.33
2022-10-29T08:30:29.557Z,59.94
2022-10-29T08:32:57.888Z,60.18
2022-10-29T08:35:25.870Z,60.01
2022-10-29T08:37:53.707Z,60.15
2022-10-29T08:40:29.172Z,60.31
2022-10-29T08:43:21.651Z,60.60
2022-10-29T08:45:52.363Z,60.84
2022-10-29T08:48:33.504Z,60.53
2022-10-29T08:51:07.051Z,60.42
2022-10-29T08:53:54.353Z,60.34
2022-10-29T08:56:36.968Z,61.34
2022-10-29T08:59:10.792Z,61.24
2022-10-29T09:01:38.728Z,61.41
2022-10-29T09:04:18.888Z,61.29
2022-10-29T09:07:14.483Z,61.35
2022-10-29T09:09:49.198Z,61.77
2022-10-29T09:12:38.379Z,62.04
2022-10-29T09:15:29.170Z,62.66
2022-10-29T09:18:24.454Z,63.08
2022-10-29T09:21:29.569Z,63.88
2022-10-29T09:27:29.466Z,63.02
2022-10-29T09:30:18.004Z,63.16
2022-10-29T09:32:59.815Z,63.06
2022-10-29T09:35:40.699Z,63.33
2022-10-29T09:38:19.158Z,63.23
2022-10-29T09:40:46.866Z,63.12
2022-10-29T09:43:36.118Z,63.17
2022-10-29T09:46:40.928Z,63.07
2022-10-29T09:49:17.195Z,63.34
2022-10-29T09:52:14.625Z,63.75
2022-10-29T09:54:42.771Z,64.12
2022-10-29T09:57:22.378Z,64.56
2022-10-29T09:59:53.204Z,64.94
2022-10-29T10:02:40.751Z,64.92
2022-10-29T10:05:14.272Z,64.76
2022-10-29T10:07:42.157Z,65.55
2022-10-29T10:10:23.692Z,66.08
2022-10-29T10:12:51.656Z,66.65
2022-10-29T10:15:25.697Z,67.23
2022-10-29T10:17:55.035Z,68.89
2022-10-29T10:20:46.315Z,69.07
2022-10-29T10:23:23.121Z,69.36
2022-10-29T10:26:00.306Z,70.15
2022-10-29T10:28:34.635Z,70.53
2022-10-29T10:31:08.360Z,70.46
2022-10-29T10:33:43.794Z,70.93
2022-10-29T10:36:11.452Z,71.20
2022-10-29T10:38:53.079Z,71.20
2022-10-29T10:41:27.709Z,71.54
2022-10-29T10:44:00.414Z,71.73
2022-10-29T10:46:50.785Z,72.23
2022-10-29T10:49:28.852Z,73.00
2022-10-29T10:51:57.849Z,74.28
2022-10-29T10:54:34.316Z,74.33
2022-10-29T10:57:04.991Z,74.53
2022-10-29T10:59:49.398Z,75.39
2022-10-29T11:02:56.220Z,74.94
2022-10-29T11:05:42.904Z,74.92
2022-10-29T11:08:16.676Z,75.06
2022-10-29T11:10:50.146Z,75.33
2022-10-29T11:13:23.777Z,75.78
2022-10-29T11:16:04.479Z,75.05
2022-10-29T11:18:42.232Z,74.55
2022-10-29T11:21:13.923Z,74.19
2022-10-29T11:23:59.567Z,74.34
2022-10-29T11:26:34.746Z,74.04
2022-10-29T11:29:12.012Z,74.10
2022-10-29T11:31:58.317Z,73.68
2022-10-29T11:34:50.119Z,73.44
2022-10-29T11:37:56.619Z,73.02
2022-10-29T11:40:47.643Z,72.87
2022-10-29T11:43:19.079Z,72.81
2022-10-29T11:46:17.859Z,72.95
2022-10-29T11:48:55.989Z,73.31
2022-10-29T11:51:42.669Z,73.69
2022-10-29T11:54:22.600Z,73.78
2022-10-29T11:56:56.345Z,73.91
2022-10-29T12:00:02.067Z,74.15
2022-10-29T12:02:41.684Z,74.08
2022-10-29T12:05:30.196Z,73.94
2022-10-29T12:08:17.218Z,74.17
2022-10-29T12:10:50.719Z,73.85
2022-10-29T12:13:39.887Z,73.61
2022-10-29T12:16:29.348Z,72.88
2022-10-29T12:18:59.768Z,72.89
2022-10-29T12:21:39.324Z,72.74
2022-10-29T12:24:16.073Z,72.57
2022-10-29T12:26:59.552Z,72.86
2022-10-29T12:29:47.791Z,73.17
2022-10-29T12:32:32.777Z,72.94
2022-10-29T12:35:06.560Z,72.39
2022-10-29T12:37:48.898Z,72.30
2022-10-29T12:40:22.845Z,71.63
2022-10-29T12:42:51.900Z,71.47
2022-10-29T12:45:30.987Z,71.42
2022-10-29T12:48:18.608Z,71.35
2022-10-29T12:51:01.352Z,71.42
2022-10-29T12:53:44.579Z,71.55
2022-10-29T12:56:16.344Z,71.64
2022-10-29T12:58:45.669Z,71.74
2022-10-29T13:01:57.519Z,71.86
2022-10-29T13:04:34.181Z,72.33
2022-10-29T13:07:22.955Z,72.39
2022-10-29T13:10:28.674Z,72.41
2022-10-29T13:13:35.751Z,72.58
2022-10-29T13:16:17.029Z,72.80
2022-10-29T13:18:51.833Z,72.93
2022-10-29T13:21:54.602Z,72.63
2022-10-29T13:24:22.723Z,72.47
2022-10-29T13:27:16.351Z,72.57
2022-10-29T13:29:45.641Z,72.85
2022-10-29T13:32:31.314Z,72.87
2022-10-29T13:35:01.419Z,72.64
2022-10-29T13:37:47.343Z,72.76
2022-10-29T13:40:33.272Z,72.84
2022-10-29T13:43:11.961Z,72.69
2022-10-29T13:45:43.115Z,72.63
2022-10-29T13:48:24.414Z,72.69
2022-10-29T13:50:54.950Z,72.86
2022-10-29T13:53:31.194Z,72.81
2022-10-29T13:55:59.690Z,72.84
2022-10-29T13:58:33.863Z,73.06
2022-10-29T14:01:07.756Z,73.43
2022-10-29T14:03:56.380Z,73.31
2022-10-29T14:06:31.328Z,73.17
2022-10-29T14:09:11.068Z,73.01
2022-10-29T14:11:42.440Z,72.93
2022-10-29T14:14:26.428Z,73.01
2022-10-29T14:17:10.588Z,73.23
2022-10-29T14:19:43.732Z,73.22
2022-10-29T14:22:30.574Z,73.46
2022-10-29T14:24:58.309Z,73.78
2022-10-29T14:27:26.540Z,73.91
2022-10-29T14:30:11.708Z,73.85
2022-10-29T14:32:40.586Z,73.78
2022-10-29T14:35:08.599Z,73.58
2022-10-29T14:37:41.457Z,73.41
2022-10-29T14:40:21.542Z,73.70
2022-10-29T14:42:55.864Z,73.86
2022-10-29T14:45:28.524Z,73.93
2022-10-29T14:48:05.362Z,74.22
2022-10-29T14:50:33.184Z,74.60
2022-10-29T14:53:05.029Z,74.78
2022-10-29T14:55:36.908Z,74.81
2022-10-29T14:58:13.521Z,74.78
2022-10-29T15:00:55.313Z,74.83
2022-10-29T15:03:26.241Z,74.72
2022-10-29T15:06:11.697Z,74.85
2022-10-29T15:08:41.456Z,75.13
2022-10-29T15:11:39.008Z,75.58
2022-10-29T15:14:52.371Z,75.77
2022-10-29T15:17:27.172Z,75.85
2022-10-29T15:19:59.044Z,75.73
2022-10-29T15:22:34.818Z,75.70
2022-10-29T15:25:05.172Z,75.57
2022-10-29T15:27:36.154Z,75.74
2022-10-29T15:30:04.845Z,75.80
2022-10-29T15:32:32.683Z,75.96
2022-10-29T15:35:00.460Z,76.32
2022-10-29T15:37:31.496Z,76.30
2022-10-29T15:40:06.957Z,76.31
2022-10-29T15:42:36.578Z,76.25
2022-10-29T15:45:07.344Z,76.17
2022-10-29T15:47:37.466Z,76.28
2022-10-29T15:50:07.210Z,76.40
2022-10-29T15:52:43.666Z,76.24
2022-10-29T15:55:14.660Z,76.76
2022-10-29T15:57:43.960Z,77.13
2022-10-29T16:00:12.920Z,76.88
2022-10-29T16:02:40.790Z,76.79
2022-10-29T16:05:13.064Z,76.80
2022-10-29T16:07:42.756Z,77.09
2022-10-29T16:10:19.353Z,77.08
2022-10-29T16:12:49.600Z,77.04
2022-10-29T16:15:20.721Z,77.01
2022-10-29T16:17:48.730Z,77.47
2022-10-29T16:20:19.336Z,77.56
2022-10-29T16:22:49.074Z,77.47
2022-10-29T16:25:28.657Z,77.40
2022-10-29T16:27:56.906Z,77.63
2022-10-29T16:30:24.961Z,77.33
2022-10-29T16:32:53.126Z,77.40
2022-10-29T16:35:26.550Z,77.95
2022-10-29T16:37:55.663Z,78.08
2022-10-29T16:40:26.235Z,78.15
2022-10-29T16:42:57.842Z,77.91
2022-10-29T16:45:32.437Z,78.08
2022-10-29T16:48:00.493Z,78.11
2022-10-29T16:50:33.872Z,78.08
2022-10-29T16:53:08.344Z,78.16
2022-10-29T16:55:38.417Z,78.64
2022-10-29T16:58:08.380Z,78.93
2022-10-29T17:00:36.729Z,78.84
2022-10-29T17:03:10.119Z,79.10
2022-10-29T17:05:41.584Z,79.09
2022-10-29T17:08:10.778Z,79.03
2022-10-29T17:10:39.464Z,79.05
2022-10-29T17:13:09.010Z,79.22
2022-10-29T17:15:40.776Z,79.34
2022-10-29T17:18:08.713Z,79.38
2022-10-29T17:20:36.358Z,79.44
2022-10-29T17:23:04.004Z,79.48
2022-10-29T17:25:31.676Z,79.06
2022-10-29T17:27:59.850Z,79.30
2022-10-29T17:30:27.860Z,79.62
2022-10-29T17:32:55.830Z,80.01
2022-10-29T17:35:23.777Z,80.06
2022-10-29T17:37:51.600Z,80.08
2022-10-29T17:40:19.251Z,79.82
2022-10-29T17:42:46.833Z,80.33
2022-10-29T17:45:20.351Z,80.56
2022-10-29T17:47:48.764Z,80.50
2022-10-29T17:50:16.423Z,80.74
2022-10-29T17:52:44.188Z,80.78
2022-10-29T17:55:11.871Z,80.78
2022-10-29T17:57:39.901Z,80.62
2022-10-29T18:00:08.111Z,80.79
2022-10-29T18:02:35.807Z,80.75
2022-10-29T18:05:03.668Z,81.20
2022-10-29T18:07:31.455Z,82.09
2022-10-29T18:09:59.115Z,82.27
2022-10-29T18:12:26.846Z,82.06
2022-10-29T18:14:54.501Z,82.14
2022-10-29T18:17:22.136Z,82.41
2022-10-29T18:19:49.760Z,82.16
2022-10-29T18:22:17.445Z,82.07
2022-10-29T18:24:45.043Z,82.17
2022-10-29T18:27:12.742Z,82.44
2022-10-29T18:29:40.331Z,82.21
2022-10-29T18:32:07.992Z,82.02
2022-10-29T18:34:36.385Z,81.99
2022-10-29T18:37:04.192Z,81.85
2022-10-29T18:39:32.081Z,82.23
2022-10-29T18:41:59.794Z,82.35
2022-10-29T18:44:27.409Z,82.08
2022-10-29T18:46:55.192Z,81.91
2022-10-29T18:49:22.948Z,81.97
2022-10-29T18:51:50.687Z,82.07
2022-10-29T18:54:19.725Z,82.01
2022-10-29T18:56:47.519Z,81.96
2022-10-29T18:59:15.268Z,82.16
2022-10-29T19:01:43.060Z,82.44
2022-10-29T19:04:15.531Z,82.16
2022-10-29T19:06:43.528Z,82.24
2022-10-29T19:09:11.781Z,82.14
2022-10-29T19:11:40.274Z,81.82
2022-10-29T19:14:12.108Z,81.95
2022-10-29T19:16:40.612Z,82.06
2022-10-29T19:19:11.831Z,82.24
2022-10-29T19:21:40.766Z,82.28
2022-10-29T19:24:13.256Z,82.29
2022-10-29T19:26:41.012Z,82.35
2022-10-29T19:29:10.541Z,81.95
2022-10-29T19:31:38.533Z,81.99
2022-10-29T19:34:07.854Z,82.30
2022-10-29T19:36:36.381Z,82.69
2022-10-29T19:39:04.939Z,82.91
2022-10-29T19:41:32.879Z,82.47
2022-10-29T19:44:02.056Z,82.38
2022-10-29T19:46:30.917Z,82.07
2022-10-29T19:49:00.617Z,82.47
2022-10-29T19:51:28.891Z,82.96
2022-10-29T19:53:58.669Z,83.46
2022-10-29T19:56:26.559Z,83.23
2022-10-29T19:58:54.249Z,82.90
2022-10-29T20:01:22.021Z,82.65
2022-10-29T20:03:49.801Z,82.53
2022-10-29T20:06:17.904Z,82.37
2022-10-29T20:08:46.130Z,82.44
2022-10-29T20:11:13.967Z,82.74
2022-10-29T20:13:41.919Z,82.91
2022-10-29T20:16:13.995Z,82.95
2022-10-29T20:18:41.830Z,83.04
2022-10-29T20:21:09.597Z,83.07
2022-10-29T20:23:37.935Z,82.91
2022-10-29T20:26:06.507Z,82.93
2022-10-29T20:28:34.920Z,83.23
2022-10-29T20:31:19.408Z,83.23
2022-10-29T20:33:50.870Z,82.91
2022-10-29T20:36:18.792Z,82.90
2022-10-29T20:38:53.411Z,82.87
2022-10-29T20:41:22.355Z,82.52
2022-10-29T20:43:55.425Z,82.64
2022-10-29T20:46:23.686Z,82.84
2022-10-29T20:48:51.407Z,83.08
2022-10-29T20:51:19.156Z,83.09
2022-10-29T20:53:46.743Z,83.12
2022-10-29T20:56:16.296Z,83.02
2022-10-29T20:58:44.571Z,83.34
2022-10-29T21:01:15.051Z,83.08
2022-10-29T21:03:43.731Z,83.32
2022-10-29T21:06:17.168Z,83.59
2022-10-29T21:08:46.506Z,83.65
2022-10-29T21:11:15.855Z,83.42
2022-10-29T21:13:43.514Z,83.33
2022-10-29T21:16:16.874Z,83.18
2022-10-29T21:18:46.818Z,83.01
2022-10-29T21:21:15.434Z,82.75
2022-10-29T21:23:43.949Z,83.07
2022-10-29T21:26:14.408Z,83.71
2022-10-29T21:28:42.932Z,83.73
2022-10-29T21:31:11.192Z,83.59
2022-10-29T21:33:39.057Z,83.29
2022-10-29T21:36:07.656Z,83.18
2022-10-29T21:38:35.444Z,83.02
2022-10-29T21:41:03.165Z,83.04
2022-10-29T21:43:30.897Z,83.16
2022-10-29T21:45:58.628Z,83.30
2022-10-29T21:48:28.010Z,83.22
2022-10-29T21:51:12.811Z,83.18
2022-10-29T21:53:40.668Z,83.20
2022-10-29T21:56:11.776Z,82.97
2022-10-29T21:58:39.512Z,83.03
2022-10-29T22:01:10.190Z,83.49
2022-10-29T22:03:43.021Z,83.61
2022-10-29T22:06:12.367Z,83.40
2022-10-29T22:08:41.637Z,83.45
2022-10-29T22:11:10.609Z,83.50
2022-10-29T22:13:38.593Z,83.72
2022-10-29T22:16:07.835Z,84.01
2022-10-29T22:18:36.417Z,84.04
2022-10-29T22:21:27.545Z,83.75
2022-10-29T22:23:57.662Z,83.99
2022-10-29T22:26:28.169Z,83.71
2022-10-29T22:28:56.667Z,83.82
2022-10-29T22:31:24.707Z,84.06
2022-10-29T22:33:52.467Z,83.88
2022-10-29T22:36:23.006Z,84.06
2022-10-29T22:38:59.126Z,84.00
2022-10-29T22:41:28.562Z,83.73
2022-10-29T22:43:58.951Z,83.86
2022-10-29T22:46:28.569Z,84.10
2022-10-29T22:48:56.807Z,84.04
2022-10-29T22:51:27.052Z,83.82
2022-10-29T22:53:55.023Z,83.49
2022-10-29T22:56:25.049Z,83.47
2022-10-29T22:58:52.915Z,83.38
2022-10-29T23:01:23.773Z,83.54
2022-10-29T23:03:51.772Z,83.85
2022-10-29T23:06:21.619Z,83.99
2022-10-29T23:08:52.725Z,83.71
2022-10-29T23:11:23.824Z,83.57
2022-10-29T23:14:02.122Z,83.33
2022-10-29T23:16:32.308Z,83.48
2022-10-29T23:19:02.669Z,83.74
2022-10-29T23:21:30.871Z,84.03
2022-10-29T23:23:58.867Z,83.82
2022-10-29T23:26:27.080Z,83.61
2022-10-29T23:28:55.072Z,83.42
2022-10-29T23:31:24.944Z,83.51
2022-10-29T23:33:54.500Z,83.21
2022-10-29T23:36:24.629Z,83.58
2022-10-29T23:38:59.844Z,83.93
2022-10-29T23:41:29.026Z,84.12
2022-10-29T23:43:57.736Z,83.88
2022-10-29T23:46:25.521Z,83.52
2022-10-29T23:48:53.256Z,83.77
2022-10-29T23:51:21.183Z,83.96
2022-10-29T23:53:53.105Z,84.08
2022-10-29T23:56:24.084Z,84.06
2022-10-29T23:58:51.745Z,84.14
